Time;durP1;ratioP1;P1;durP2;ratioP2;P2;SDS_P1;SDS_P2;PMS_P1;PMS_P2;Temp;Humidity;BMP_temperature;BMP_pressure;BME280_temperature;BME280_humidity;BME280_pressure;Samples;Min_cycle;Max_cycle;Signal;HPM_P1;HPM_P2
2021/08/26 00:08:26;;;;;;;4.57;3.10;;;19.40;99.90;;;;;;4999984;28;20985;-79
2021/08/26 00:10:57;;;;;;;2.90;2.20;;;19.40;99.90;;;;;;5000138;28;20604;-79
2021/08/26 00:13:31;;;;;;;3.10;2.40;;;19.40;99.90;;;;;;5016441;28;20673;-79
2021/08/26 00:16:01;;;;;;;4.97;3.30;;;19.40;99.90;;;;;;4999137;28;20689;-79
2021/08/26 00:18:36;;;;;;;3.57;3.27;;;19.40;99.90;;;;;;5000734;28;20614;-79
2021/08/26 00:21:30;;;;;;;4.00;3.70;;;19.40;99.90;;;;;;4999387;28;20669;-79
2021/08/26 00:24:10;;;;;;;5.40;4.40;;;19.40;99.90;;;;;;4999455;28;20978;-79
2021/08/26 00:27:19;;;;;;;5.00;4.40;;;19.40;99.90;;;;;;4999242;28;20671;-79
2021/08/26 00:29:53;;;;;;;5.10;4.20;;;19.40;99.90;;;;;;4972753;28;20642;-79
2021/08/26 00:32:25;;;;;;;5.90;5.20;;;19.40;99.90;;;;;;4999750;28;20634;-78
2021/08/26 00:34:51;;;;;;;6.27;5.67;;;19.40;99.90;;;;;;5033266;28;20986;-78
2021/08/26 00:37:17;;;;;;;6.13;5.53;;;19.40;99.90;;;;;;5015989;28;20572;-78
2021/08/26 00:39:43;;;;;;;6.50;5.90;;;19.40;99.90;;;;;;5037575;28;20569;-78
2021/08/26 00:42:09;;;;;;;6.90;5.40;;;19.40;99.90;;;;;;5033837;28;20564;-78
2021/08/26 00:44:37;;;;;;;7.30;6.60;;;19.40;99.90;;;;;;5033560;28;20169;-78
2021/08/26 00:47:03;;;;;;;6.77;6.07;;;19.30;99.90;;;;;;5033376;28;20565;-78
2021/08/26 00:49:30;;;;;;;6.30;5.70;;;19.30;99.90;;;;;;4999171;28;20719;-78
2021/08/26 00:51:57;;;;;;;5.97;5.50;;;19.30;99.90;;;;;;5033472;28;20596;-79
2021/08/26 00:54:23;;;;;;;7.40;6.70;;;19.30;99.90;;;;;;5033288;28;20729;-78
2021/08/26 00:56:49;;;;;;;5.97;5.40;;;19.20;99.90;;;;;;5032821;28;20569;-78
2021/08/26 00:59:16;;;;;;;6.70;5.97;;;19.20;99.90;;;;;;4999463;28;20623;-78
2021/08/26 01:01:54;;;;;;;5.57;5.07;;;19.20;99.90;;;;;;5033153;28;20674;-78
2021/08/26 01:04:38;;;;;;;5.97;5.40;;;19.20;99.90;;;;;;5015295;28;20264;-79
2021/08/26 01:07:07;;;;;;;7.53;5.00;;;19.10;99.90;;;;;;4998565;28;20627;-78
2021/08/26 01:09:43;;;;;;;6.30;4.70;;;19.10;99.90;;;;;;5033014;28;20568;-79
2021/08/26 01:12:11;;;;;;;5.03;4.60;;;19.10;99.90;;;;;;4998459;28;20568;-79
2021/08/26 01:14:37;;;;;;;5.73;5.23;;;19.10;99.90;;;;;;5015417;28;20920;-79
2021/08/26 01:17:03;;;;;;;5.83;5.20;;;19.10;99.90;;;;;;5035999;28;20568;-78
2021/08/26 01:19:29;;;;;;;6.10;5.50;;;19.10;99.90;;;;;;5032912;28;20560;-79
2021/08/26 01:21:55;;;;;;;6.90;5.40;;;19.00;99.90;;;;;;5014830;28;20611;-79
2021/08/26 01:24:22;;;;;;;5.27;4.77;;;19.00;99.90;;;;;;5015097;28;20308;-79
2021/08/26 01:26:53;;;;;;;5.27;4.77;;;19.00;99.90;;;;;;5014689;28;20191;-79
2021/08/26 01:29:20;;;;;;;6.30;5.03;;;18.90;99.90;;;;;;5015086;28;20591;-79
2021/08/26 01:31:47;;;;;;;4.83;4.10;;;18.90;99.90;;;;;;5014998;28;20612;-79
2021/08/26 01:34:18;;;;;;;5.70;5.20;;;18.90;99.90;;;;;;5013716;28;21223;-79
2021/08/26 01:36:45;;;;;;;4.17;3.77;;;18.80;99.90;;;;;;5032136;28;20595;-79
2021/08/26 01:39:15;;;;;;;5.17;4.13;;;18.80;99.90;;;;;;5030896;28;20565;-79
2021/08/26 01:41:55;;;;;;;4.30;3.90;;;18.80;99.90;;;;;;5032416;28;20596;-79
2021/08/26 01:44:28;;;;;;;5.87;4.10;;;18.80;99.90;;;;;;5015215;28;20633;-79
2021/08/26 01:47:03;;;;;;;3.73;3.43;;;18.80;99.90;;;;;;5014985;28;20615;-80
2021/08/26 01:49:29;;;;;;;4.60;4.20;;;18.70;99.90;;;;;;5014595;28;20576;-79
2021/08/26 01:51:54;;;;;;;5.53;3.80;;;18.70;99.90;;;;;;5032657;28;20947;-79
2021/08/26 01:54:20;;;;;;;5.90;3.63;;;18.70;99.90;;;;;;5001335;28;20233;-78
2021/08/26 01:56:47;;;;;;;4.97;3.27;;;18.70;99.90;;;;;;5032023;28;20165;-79
2021/08/26 01:59:13;;;;;;;3.80;3.33;;;18.60;99.90;;;;;;5014456;28;20201;-78
2021/08/26 02:01:39;;;;;;;4.27;3.10;;;18.60;99.90;;;;;;5032188;28;20620;-81
2021/08/26 02:04:04;;;;;;;3.57;3.27;;;18.60;99.90;;;;;;5030924;28;20591;-78
2021/08/26 02:06:30;;;;;;;5.40;2.43;;;18.50;99.90;;;;;;5013675;28;20601;-79
2021/08/26 02:08:56;;;;;;;4.93;3.13;;;18.50;99.90;;;;;;5030809;28;20178;-79
2021/08/26 02:11:22;;;;;;;3.13;2.83;;;18.50;99.90;;;;;;5031696;28;20679;-79
2021/08/26 02:13:48;;;;;;;3.33;2.90;;;18.40;99.90;;;;;;5014050;28;20280;-79
2021/08/26 02:16:17;;;;;;;3.50;3.20;;;18.40;99.90;;;;;;5031085;28;21135;-79
2021/08/26 02:18:44;;;;;;;3.27;2.97;;;18.40;99.90;;;;;;5014285;28;20647;-79
2021/08/26 02:21:10;;;;;;;4.07;3.67;;;18.40;99.90;;;;;;5031607;28;20635;-79
2021/08/26 02:23:36;;;;;;;3.37;2.97;;;18.40;99.90;;;;;;5031885;28;20664;-79
2021/08/26 02:26:02;;;;;;;3.50;3.20;;;18.40;99.90;;;;;;5013613;28;20569;-79
2021/08/26 02:28:28;;;;;;;3.40;2.90;;;18.40;99.90;;;;;;5014035;28;21200;-79
2021/08/26 02:30:54;;;;;;;5.90;3.33;;;18.40;99.90;;;;;;5036621;28;20655;-83
2021/08/26 02:33:19;;;;;;;3.07;2.77;;;18.40;99.90;;;;;;4998215;28;20258;-83
2021/08/26 02:35:45;;;;;;;4.30;3.83;;;18.40;99.90;;;;;;5031860;28;20219;-83
2021/08/26 02:38:11;;;;;;;4.63;3.67;;;18.40;99.90;;;;;;5030781;28;20227;-83
2021/08/26 02:40:37;;;;;;;4.50;4.10;;;18.40;99.90;;;;;;5032636;28;20596;-84
2021/08/26 02:43:02;;;;;;;4.87;4.17;;;18.40;99.90;;;;;;5014890;28;20181;-83
2021/08/26 02:45:28;;;;;;;4.37;3.77;;;18.40;99.90;;;;;;5031892;28;20196;-83
2021/08/26 02:47:54;;;;;;;6.20;3.43;;;18.40;99.90;;;;;;5031637;28;20181;-83
2021/08/26 02:50:20;;;;;;;4.33;3.93;;;18.40;99.90;;;;;;5031809;28;20592;-83
2021/08/26 02:52:46;;;;;;;3.60;3.10;;;18.40;99.90;;;;;;5013700;28;20280;-83
2021/08/26 02:55:11;;;;;;;2.60;1.93;;;18.30;99.90;;;;;;5013428;28;20170;-82
2021/08/26 02:57:37;;;;;;;3.40;1.50;;;18.30;99.90;;;;;;4981143;28;20256;-82
2021/08/26 03:00:05;;;;;;;2.57;1.63;;;18.20;99.90;;;;;;5014100;28;20677;-83
2021/08/26 03:02:31;;;;;;;1.80;1.33;;;18.20;99.90;;;;;;5015016;28;21142;-83
2021/08/26 03:04:57;;;;;;;3.70;2.17;;;18.10;99.90;;;;;;5013579;28;20579;-83
2021/08/26 03:07:22;;;;;;;3.23;1.60;;;18.10;99.90;;;;;;5035185;28;20205;-83
2021/08/26 03:09:48;;;;;;;2.33;1.50;;;18.00;99.90;;;;;;5031456;28;20507;-83
2021/08/26 03:12:13;;;;;;;2.60;1.03;;;17.90;99.90;;;;;;5031465;28;20177;-83
2021/08/26 03:14:39;;;;;;;5.03;1.87;;;17.90;99.90;;;;;;5013862;28;20158;-83
2021/08/26 03:17:05;;;;;;;2.90;1.20;;;17.90;99.90;;;;;;5013549;28;20177;-83
2021/08/26 03:19:33;;;;;;;2.70;1.37;;;17.80;99.90;;;;;;5032272;28;20166;-82
2021/08/26 03:21:59;;;;;;;3.73;1.43;;;17.80;99.90;;;;;;5031537;28;20185;-82
2021/08/26 03:24:25;;;;;;;1.63;1.10;;;17.70;99.90;;;;;;5030266;28;20579;-81
2021/08/26 03:26:51;;;;;;;3.07;1.30;;;17.70;99.90;;;;;;5029500;28;20174;-82
2021/08/26 03:29:16;;;;;;;2.63;1.27;;;17.70;99.90;;;;;;5013862;28;20263;-82
2021/08/26 03:31:42;;;;;;;4.70;1.80;;;17.70;99.90;;;;;;5031170;28;20209;-82
2021/08/26 03:34:08;;;;;;;2.03;1.20;;;17.70;99.90;;;;;;5031503;28;20612;-83
2021/08/26 03:36:34;;;;;;;2.37;1.40;;;17.60;99.90;;;;;;5033497;28;20227;-81
2021/08/26 03:39:00;;;;;;;2.00;1.33;;;17.60;99.90;;;;;;5014359;28;20580;-82
2021/08/26 03:41:26;;;;;;;2.50;1.50;;;17.60;99.90;;;;;;5030845;28;20292;-82
2021/08/26 03:43:52;;;;;;;2.23;1.30;;;17.60;99.90;;;;;;5000508;28;20600;-81
2021/08/26 03:46:18;;;;;;;2.97;1.80;;;17.60;99.90;;;;;;5031175;28;20539;-81
2021/08/26 03:48:44;;;;;;;5.80;2.40;;;17.50;99.90;;;;;;4996907;28;20585;-82
2021/08/26 03:51:09;;;;;;;5.40;1.93;;;17.50;99.90;;;;;;5013486;28;20615;-81
2021/08/26 03:53:35;;;;;;;2.90;1.70;;;17.50;99.90;;;;;;5030856;28;20197;-82
2021/08/26 03:56:01;;;;;;;4.77;1.97;;;17.50;99.90;;;;;;5031672;28;20188;-81
2021/08/26 03:58:27;;;;;;;3.73;1.50;;;17.50;99.90;;;;;;5016191;28;20177;-81
2021/08/26 04:00:52;;;;;;;4.00;1.60;;;17.50;99.90;;;;;;5034214;28;20588;-81
2021/08/26 04:03:18;;;;;;;2.90;1.27;;;17.50;99.90;;;;;;5034367;28;20228;-81
2021/08/26 04:05:44;;;;;;;2.80;1.80;;;17.50;99.90;;;;;;5032795;28;20188;-81
2021/08/26 04:08:09;;;;;;;7.03;1.83;;;17.50;99.90;;;;;;5034133;28;20212;-81
2021/08/26 04:10:36;;;;;;;3.10;1.60;;;17.50;99.90;;;;;;5016589;28;20518;-80
2021/08/26 04:13:08;;;;;;;4.03;1.37;;;17.50;99.90;;;;;;5030949;28;20736;-81
2021/08/26 04:15:34;;;;;;;3.43;1.60;;;17.50;99.90;;;;;;5028854;28;20614;-82
2021/08/26 04:18:00;;;;;;;2.40;1.40;;;17.50;99.90;;;;;;5006737;28;20978;-81
2021/08/26 04:20:26;;;;;;;4.17;1.57;;;17.50;99.90;;;;;;4997337;28;20554;-82
2021/08/26 04:22:52;;;;;;;4.07;1.30;;;17.50;99.90;;;;;;5034225;28;20568;-82
2021/08/26 04:25:17;;;;;;;4.77;1.67;;;17.50;99.90;;;;;;5033777;28;20174;-82
2021/08/26 04:27:43;;;;;;;2.17;1.17;;;17.50;99.90;;;;;;5016203;28;20186;-82
2021/08/26 04:30:10;;;;;;;2.70;1.43;;;17.50;99.90;;;;;;5033675;28;20206;-82
2021/08/26 04:32:35;;;;;;;2.30;1.40;;;17.50;99.90;;;;;;5034182;28;20561;-82
2021/08/26 04:35:01;;;;;;;4.73;1.50;;;17.50;99.90;;;;;;5033685;28;20565;-81
2021/08/26 04:37:29;;;;;;;3.37;1.30;;;17.60;99.90;;;;;;5033973;28;20622;-80
2021/08/26 04:39:55;;;;;;;3.00;1.80;;;17.60;99.90;;;;;;5033892;28;20176;-81
2021/08/26 04:42:21;;;;;;;3.93;1.40;;;17.60;99.90;;;;;;5034202;28;20970;-82
2021/08/26 04:44:47;;;;;;;3.53;1.40;;;17.60;99.90;;;;;;5049268;28;20573;-81
2021/08/26 04:47:12;;;;;;;3.53;1.80;;;17.60;99.90;;;;;;5035547;28;20193;-81
2021/08/26 04:49:38;;;;;;;3.13;1.70;;;17.60;99.90;;;;;;5033930;28;20166;-81
2021/08/26 04:52:04;;;;;;;3.63;1.60;;;17.60;99.90;;;;;;5034090;28;20540;-82
2021/08/26 04:54:30;;;;;;;4.03;1.80;;;17.70;99.90;;;;;;5035078;28;20216;-82
2021/08/26 04:56:56;;;;;;;2.93;1.20;;;17.70;99.90;;;;;;5043420;28;20564;-83
2021/08/26 04:59:22;;;;;;;4.27;1.30;;;17.70;99.90;;;;;;5038382;28;20943;-81
2021/08/26 05:01:47;;;;;;;2.73;1.70;;;17.70;99.90;;;;;;5016077;28;20554;-80
2021/08/26 05:04:20;;;;;;;3.53;1.20;;;17.70;99.90;;;;;;5033233;28;20177;-80
2021/08/26 05:06:46;;;;;;;5.67;2.27;;;17.80;99.90;;;;;;5032654;28;20572;-80
2021/08/26 05:09:12;;;;;;;2.60;1.40;;;17.80;99.90;;;;;;5006722;28;20919;-82
2021/08/26 05:11:39;;;;;;;3.10;1.40;;;17.80;99.90;;;;;;5013926;28;20294;-81
2021/08/26 05:14:05;;;;;;;3.30;1.57;;;17.80;99.90;;;;;;5013443;28;20198;-80
2021/08/26 05:16:31;;;;;;;2.70;1.47;;;17.80;99.90;;;;;;5013075;28;20896;-80
2021/08/26 05:18:56;;;;;;;2.10;1.43;;;17.90;99.90;;;;;;5013172;28;20163;-82
2021/08/26 05:21:22;;;;;;;3.93;1.97;;;17.90;99.90;;;;;;4986558;28;20284;-82
2021/08/26 05:23:48;;;;;;;4.27;1.63;;;17.90;99.90;;;;;;5022061;28;20167;-83
2021/08/26 05:26:14;;;;;;;3.80;1.60;;;17.90;99.90;;;;;;5005346;28;20174;-80
2021/08/26 05:28:41;;;;;;;3.30;1.97;;;17.90;99.90;;;;;;5022033;28;20366;-82
2021/08/26 05:31:07;;;;;;;2.97;1.53;;;17.90;99.90;;;;;;5012042;28;20201;-81
2021/08/26 05:33:32;;;;;;;3.20;2.07;;;18.00;99.90;;;;;;5009142;28;20987;-81
2021/08/26 05:35:58;;;;;;;2.67;1.67;;;18.00;99.90;;;;;;5017557;28;20614;-79
2021/08/26 05:38:24;;;;;;;5.40;1.70;;;18.00;99.90;;;;;;5018234;28;20176;-80
2021/08/26 05:40:49;;;;;;;7.67;2.90;;;18.00;99.90;;;;;;5013382;28;20198;-82
2021/08/26 05:43:15;;;;;;;4.63;1.63;;;18.00;99.90;;;;;;5017463;28;20170;-81
2021/08/26 05:45:41;;;;;;;3.37;1.70;;;18.10;99.90;;;;;;5017613;28;20202;-82
2021/08/26 05:48:07;;;;;;;6.67;1.50;;;18.10;99.90;;;;;;5013377;28;20256;-81
2021/08/26 05:50:32;;;;;;;3.83;2.00;;;18.10;99.90;;;;;;4994912;28;20271;-81
2021/08/26 05:52:58;;;;;;;7.20;2.20;;;18.20;99.90;;;;;;4982973;28;20198;-81
2021/08/26 05:55:24;;;;;;;6.03;2.37;;;18.20;99.90;;;;;;5013049;28;20631;-80
2021/08/26 05:57:49;;;;;;;2.97;2.00;;;18.30;99.90;;;;;;5012752;28;20190;-80
2021/08/26 06:00:16;;;;;;;5.10;2.03;;;18.30;99.90;;;;;;4978576;28;20222;-81
2021/08/26 06:02:41;;;;;;;2.77;1.97;;;18.30;99.90;;;;;;4995063;28;20174;-81
2021/08/26 06:05:08;;;;;;;7.10;2.37;;;18.40;99.90;;;;;;5012157;28;20917;-80
2021/08/26 06:07:34;;;;;;;3.60;2.20;;;18.40;99.90;;;;;;5012451;28;20174;-81
2021/08/26 06:10:00;;;;;;;5.50;2.50;;;18.40;99.90;;;;;;5014944;28;20562;-78
2021/08/26 06:12:27;;;;;;;5.80;1.93;;;18.40;99.90;;;;;;5011900;28;20570;-78
2021/08/26 06:14:53;;;;;;;3.60;1.70;;;18.50;99.90;;;;;;5011392;28;20562;-78
2021/08/26 06:17:18;;;;;;;4.63;2.07;;;18.50;99.90;;;;;;5028840;28;20564;-77
2021/08/26 06:19:44;;;;;;;2.87;1.70;;;18.50;99.90;;;;;;5014243;28;20174;-76
2021/08/26 06:22:10;;;;;;;5.73;2.07;;;18.50;99.90;;;;;;5033960;28;20260;-76
2021/08/26 06:24:35;;;;;;;4.30;2.00;;;18.50;99.90;;;;;;5032882;28;20260;-77
2021/08/26 06:27:02;;;;;;;4.83;1.60;;;18.60;99.90;;;;;;5035086;28;20188;-76
2021/08/26 06:29:28;;;;;;;7.47;1.73;;;18.60;99.90;;;;;;5033351;28;20224;-77
2021/08/26 06:31:54;;;;;;;3.00;1.13;;;18.60;99.90;;;;;;5012121;28;20612;-78
2021/08/26 06:34:20;;;;;;;2.50;1.10;;;18.70;99.90;;;;;;4993828;28;20625;-77
2021/08/26 06:36:46;;;;;;;5.50;1.43;;;18.70;99.90;;;;;;5010722;28;20766;-77
2021/08/26 06:39:11;;;;;;;5.43;1.30;;;18.80;99.90;;;;;;5011245;28;20170;-77
2021/08/26 06:41:37;;;;;;;3.07;1.00;;;18.90;99.90;;;;;;4993468;28;20655;-77
2021/08/26 06:44:03;;;;;;;3.43;1.33;;;19.00;99.90;;;;;;5011781;28;20178;-77
2021/08/26 06:46:29;;;;;;;2.33;1.17;;;19.00;99.90;;;;;;4994941;28;20181;-78
2021/08/26 06:48:56;;;;;;;2.70;0.80;;;19.00;99.90;;;;;;4995258;28;20581;-79
2021/08/26 06:51:22;;;;;;;3.50;1.73;;;19.00;99.90;;;;;;5011463;28;20205;-78
2021/08/26 06:53:49;;;;;;;2.83;1.10;;;19.00;99.90;;;;;;4994500;28;20613;-77
2021/08/26 06:56:15;;;;;;;2.90;1.53;;;19.00;99.90;;;;;;4977170;28;20569;-77
2021/08/26 06:58:41;;;;;;;3.00;0.90;;;19.10;99.90;;;;;;4993490;28;20572;-78
2021/08/26 07:01:07;;;;;;;2.60;0.90;;;19.10;99.90;;;;;;5011375;28;21379;-78
2021/08/26 07:03:33;;;;;;;5.13;1.00;;;19.20;99.90;;;;;;5012082;28;21124;-77
2021/08/26 07:05:58;;;;;;;3.17;1.13;;;19.30;99.90;;;;;;4993994;28;20646;-76
2021/08/26 07:08:24;;;;;;;2.77;0.97;;;19.30;99.90;;;;;;5011310;28;20202;-77
2021/08/26 07:10:49;;;;;;;4.53;1.13;;;19.30;99.90;;;;;;5013096;28;20240;-77
2021/08/26 07:13:15;;;;;;;3.10;1.40;;;19.40;99.90;;;;;;5011099;28;20232;-76
2021/08/26 07:15:41;;;;;;;7.20;1.37;;;19.50;99.90;;;;;;5030474;28;20637;-76
2021/08/26 07:18:07;;;;;;;4.23;1.40;;;19.60;99.90;;;;;;5031337;28;20190;-77
2021/08/26 07:20:35;;;;;;;6.40;1.33;;;19.70;99.90;;;;;;5032949;28;20243;-77
2021/08/26 07:23:00;;;;;;;7.60;1.77;;;19.70;99.90;;;;;;5032750;28;20308;-75
2021/08/26 07:25:26;;;;;;;4.77;1.27;;;19.80;99.90;;;;;;5033092;28;20657;-76
2021/08/26 07:27:52;;;;;;;7.33;1.90;;;19.80;99.90;;;;;;5030859;28;20170;-76
2021/08/26 07:30:18;;;;;;;6.07;1.60;;;19.90;99.90;;;;;;5013083;28;20540;-77
2021/08/26 07:32:43;;;;;;;7.07;2.17;;;20.00;99.90;;;;;;5016953;28;20197;-75
2021/08/26 07:35:09;;;;;;;5.83;1.50;;;20.10;99.90;;;;;;5034229;28;20165;-76
2021/08/26 07:37:35;;;;;;;3.50;1.40;;;20.20;99.90;;;;;;5016386;28;20173;-76
2021/08/26 07:40:01;;;;;;;4.67;1.70;;;20.20;99.90;;;;;;5034807;28;20630;-76
2021/08/26 07:42:27;;;;;;;7.80;2.70;;;20.30;99.90;;;;;;5035619;28;20174;-76
2021/08/26 07:44:53;;;;;;;7.00;3.03;;;20.30;99.90;;;;;;5034094;28;20615;-76
2021/08/26 07:47:18;;;;;;;3.60;1.93;;;20.30;99.90;;;;;;5034941;28;20438;-76
2021/08/26 07:49:44;;;;;;;4.40;2.13;;;20.30;99.90;;;;;;5000836;28;20233;-76
2021/08/26 07:52:10;;;;;;;3.60;2.07;;;20.30;99.90;;;;;;5035161;28;20252;-75
2021/08/26 07:54:35;;;;;;;10.03;1.90;;;20.30;99.90;;;;;;5035019;28;20201;-75
2021/08/26 07:57:01;;;;;;;4.43;1.90;;;20.30;99.90;;;;;;5034530;28;20220;-75
2021/08/26 07:59:27;;;;;;;4.40;2.17;;;20.40;99.90;;;;;;5017386;28;20712;-76
2021/08/26 08:01:53;;;;;;;6.67;1.80;;;20.40;99.90;;;;;;5037763;28;20608;-76
2021/08/26 08:04:18;;;;;;;8.67;1.87;;;20.50;99.90;;;;;;5034902;28;20204;-77
2021/08/26 08:06:47;;;;;;;6.33;1.97;;;20.50;99.90;;;;;;5025665;28;20273;-76
2021/08/26 08:09:12;;;;;;;5.10;1.90;;;20.60;99.90;;;;;;4999714;28;20598;-77
2021/08/26 08:11:38;;;;;;;7.10;1.33;;;20.60;99.90;;;;;;5033571;28;20712;-77
2021/08/26 08:14:04;;;;;;;4.63;1.60;;;20.70;99.90;;;;;;5012132;28;20195;-78
2021/08/26 08:16:30;;;;;;;5.63;2.03;;;20.70;99.90;;;;;;5013918;28;20185;-77
2021/08/26 08:18:56;;;;;;;5.97;2.17;;;20.60;99.90;;;;;;5014036;28;20589;-77
2021/08/26 08:21:22;;;;;;;7.63;1.83;;;20.50;99.90;;;;;;4996730;28;20677;-77
2021/08/26 08:23:48;;;;;;;7.17;2.63;;;20.50;99.90;;;;;;5027787;28;20174;-76
2021/08/26 08:26:13;;;;;;;5.87;1.80;;;20.50;99.90;;;;;;5015791;28;20272;-77
2021/08/26 08:28:39;;;;;;;5.83;1.73;;;20.40;99.90;;;;;;5032241;28;20544;-77
2021/08/26 08:31:05;;;;;;;5.17;2.10;;;20.50;99.90;;;;;;5032791;28;20228;-76
2021/08/26 08:33:32;;;;;;;5.27;2.00;;;20.40;99.90;;;;;;5033287;28;20695;-77
2021/08/26 08:35:58;;;;;;;6.43;1.97;;;20.40;99.90;;;;;;5015257;28;20615;-77
2021/08/26 08:38:24;;;;;;;4.10;1.30;;;20.40;99.90;;;;;;5037374;28;20604;-77
2021/08/26 08:40:50;;;;;;;3.87;1.60;;;20.40;99.90;;;;;;5015238;28;20206;-77
2021/08/26 08:43:15;;;;;;;7.00;1.63;;;20.40;99.90;;;;;;5015219;28;20184;-77
2021/08/26 08:45:45;;;;;;;4.20;1.73;;;20.30;99.90;;;;;;5032890;28;20516;-77
2021/08/26 08:48:12;;;;;;;4.67;1.80;;;20.40;99.90;;;;;;5015308;28;20649;-77
2021/08/26 08:50:41;;;;;;;6.17;1.50;;;20.40;99.90;;;;;;5014962;28;20615;-76
2021/08/26 08:53:14;;;;;;;6.40;1.70;;;20.40;99.90;;;;;;5032844;28;21249;-78
2021/08/26 08:55:43;;;;;;;3.40;1.20;;;20.40;99.90;;;;;;5028730;28;20977;-77
2021/08/26 08:58:09;;;;;;;3.87;1.33;;;20.40;99.90;;;;;;5012657;28;20612;-76
2021/08/26 09:00:35;;;;;;;6.83;1.80;;;20.50;99.90;;;;;;4995378;28;20655;-76
2021/08/26 09:03:01;;;;;;;3.00;1.20;;;20.40;99.90;;;;;;4995431;28;20664;-76
2021/08/26 09:05:54;;;;;;;2.83;0.90;;;20.50;99.90;;;;;;4995035;28;20584;-77
2021/08/26 09:08:22;;;;;;;4.57;1.30;;;20.40;99.90;;;;;;4995161;28;20576;-76
2021/08/26 09:10:49;;;;;;;4.73;0.93;;;20.40;99.90;;;;;;5012931;28;20597;-76
2021/08/26 09:13:15;;;;;;;4.00;1.20;;;20.40;99.90;;;;;;5013070;28;20972;-76
2021/08/26 09:15:46;;;;;;;8.30;1.57;;;20.40;99.90;;;;;;5014711;28;20612;-76
2021/08/26 09:18:18;;;;;;;4.27;1.20;;;20.50;99.90;;;;;;5047589;22;20247;-77
2021/08/26 09:21:11;;;;;;;4.73;1.53;;;20.50;99.90;;;;;;5042765;28;20598;-76
2021/08/26 09:24:01;;;;;;;2.53;1.10;;;20.50;99.90;;;;;;5012355;28;20576;-77
2021/08/26 09:26:28;;;;;;;3.03;1.53;;;20.50;99.90;;;;;;5032156;28;20628;-76
2021/08/26 09:29:00;;;;;;;4.70;1.43;;;20.70;99.90;;;;;;5032302;28;20931;-77
2021/08/26 09:31:27;;;;;;;2.43;1.00;;;20.70;99.90;;;;;;5033686;28;20972;-78
2021/08/26 09:33:56;;;;;;;2.67;1.30;;;20.70;99.90;;;;;;5018105;28;21196;-77
2021/08/26 09:36:28;;;;;;;3.07;1.37;;;20.70;99.90;;;;;;5055792;28;20560;-78
2021/08/26 09:39:10;;;;;;;2.67;1.10;;;20.80;99.90;;;;;;5052040;28;20692;-77
2021/08/26 09:41:46;;;;;;;7.13;1.27;;;20.70;99.90;;;;;;5051785;28;20571;-78
2021/08/26 09:44:13;;;;;;;3.50;1.30;;;20.70;99.90;;;;;;5052130;28;20574;-77
2021/08/26 09:46:38;;;;;;;6.07;1.50;;;20.60;99.90;;;;;;5051235;28;20587;-77
2021/08/26 09:49:11;;;;;;;5.07;1.20;;;20.60;99.90;;;;;;5051855;28;20634;-77
2021/08/26 09:51:37;;;;;;;2.93;1.70;;;20.50;99.90;;;;;;5034199;28;20180;-77
2021/08/26 09:54:04;;;;;;;5.90;1.50;;;20.50;99.90;;;;;;5033249;28;20689;-77
2021/08/26 09:56:40;;;;;;;4.97;1.63;;;20.60;99.90;;;;;;5017218;28;20587;-77
2021/08/26 09:59:06;;;;;;;3.20;1.20;;;20.60;99.90;;;;;;5051785;28;20603;-77
2021/08/26 10:01:36;;;;;;;4.00;1.37;;;20.80;99.90;;;;;;5051824;28;20989;-78
2021/08/26 10:04:02;;;;;;;4.10;1.20;;;20.90;99.90;;;;;;5034161;28;20168;-77
2021/08/26 10:06:29;;;;;;;3.20;1.10;;;21.00;99.90;;;;;;5017675;28;20594;-77
2021/08/26 10:08:56;;;;;;;4.60;1.40;;;21.10;99.90;;;;;;5007017;28;21218;-78
2021/08/26 10:11:23;;;;;;;4.60;1.00;;;21.10;99.90;;;;;;5019160;28;20677;-78
2021/08/26 10:13:50;;;;;;;2.43;1.27;;;21.20;99.90;;;;;;5020956;28;20618;-79
2021/08/26 10:16:16;;;;;;;6.90;1.83;;;21.10;99.90;;;;;;5033787;28;20570;-79
2021/08/26 10:18:42;;;;;;;2.77;0.87;;;21.00;99.90;;;;;;5051157;28;20607;-79
2021/08/26 10:21:09;;;;;;;4.20;1.00;;;20.90;99.90;;;;;;5033735;28;20567;-78
2021/08/26 10:23:37;;;;;;;4.40;1.20;;;20.80;99.90;;;;;;5050989;28;20949;-78
2021/08/26 10:26:07;;;;;;;1.77;1.07;;;20.80;99.90;;;;;;5033342;28;20920;-78
2021/08/26 10:28:41;;;;;;;3.40;1.03;;;20.70;99.90;;;;;;5016774;28;20923;-78
2021/08/26 10:31:31;;;;;;;3.03;1.10;;;20.70;99.90;;;;;;5052198;28;20567;-78
2021/08/26 10:34:23;;;;;;;3.13;1.00;;;20.60;99.90;;;;;;5050491;28;20780;-77
2021/08/26 10:36:55;;;;;;;2.60;1.37;;;20.70;99.90;;;;;;5051223;28;20618;-78
2021/08/26 10:39:31;;;;;;;2.93;1.10;;;20.80;99.90;;;;;;5050808;28;20604;-78
2021/08/26 10:42:38;;;;;;;5.17;1.20;;;20.80;99.90;;;;;;5051375;28;21111;-78
2021/08/26 10:45:07;;;;;;;3.50;1.60;;;20.90;99.90;;;;;;4934063;29;21056;-77
2021/08/26 10:47:48;;;;;;;3.80;1.20;;;20.90;99.90;;;;;;5003212;28;20623;-78
2021/08/26 10:50:38;;;;;;;2.80;1.50;;;20.90;99.90;;;;;;5021166;28;20645;-78
2021/08/26 10:53:30;;;;;;;4.43;1.30;;;21.00;99.90;;;;;;5033273;28;20693;-78
2021/08/26 10:56:08;;;;;;;1.93;0.90;;;21.00;99.90;;;;;;5032228;28;20560;-78
2021/08/26 10:58:34;;;;;;;4.70;1.10;;;20.90;99.90;;;;;;5033254;28;20591;-78
2021/08/26 11:01:04;;;;;;;2.73;0.93;;;20.90;99.90;;;;;;5050603;28;20563;-77
2021/08/26 11:03:45;;;;;;;3.00;1.40;;;20.90;99.90;;;;;;5016841;28;20587;-78
2021/08/26 11:06:17;;;;;;;2.50;1.10;;;20.80;99.90;;;;;;5053722;28;20567;-78
2021/08/26 11:08:52;;;;;;;3.63;1.40;;;20.70;99.90;;;;;;5054835;28;20622;-77
2021/08/26 11:11:27;;;;;;;5.20;1.30;;;20.70;99.90;;;;;;5054936;28;20567;-77
2021/08/26 11:14:02;;;;;;;2.90;1.07;;;20.60;99.90;;;;;;5041641;28;20629;-77
2021/08/26 11:16:27;;;;;;;2.60;1.20;;;20.50;99.90;;;;;;5056765;28;20673;-77
2021/08/26 11:18:58;;;;;;;3.43;1.43;;;20.40;99.90;;;;;;5040124;28;20705;-77
2021/08/26 11:24:20;;;;;;;5.70;1.40;;;20.30;99.90;;;;;;5074962;28;20577;-79
2021/08/26 11:26:58;;;;;;;4.37;1.50;;;20.40;99.90;;;;;;5060289;28;20621;-79
2021/08/26 11:29:23;;;;;;;5.30;1.40;;;20.40;99.90;;;;;;5057208;28;20657;-79
2021/08/26 11:31:52;;;;;;;3.00;1.20;;;20.80;99.90;;;;;;5056939;28;20674;-78
2021/08/26 11:34:36;;;;;;;8.27;1.67;;;21.10;99.90;;;;;;5056522;28;20208;-78
2021/08/26 11:37:08;;;;;;;5.13;1.33;;;21.40;99.90;;;;;;5056365;28;20562;-78
2021/08/26 11:39:38;;;;;;;5.53;1.87;;;21.80;99.90;;;;;;5056665;28;21186;-78
2021/08/26 11:42:21;;;;;;;5.77;1.80;;;22.20;99.90;;;;;;5040029;28;20561;-78
2021/08/26 11:45:07;;;;;;;5.00;1.67;;;22.40;99.90;;;;;;5039926;28;20592;-78
2021/08/26 11:47:39;;;;;;;3.00;1.10;;;22.80;99.90;;;;;;5074255;28;20591;-79
2021/08/26 11:50:14;;;;;;;3.67;1.57;;;23.20;99.90;;;;;;5039610;28;21007;-78
2021/08/26 11:52:41;;;;;;;4.37;1.73;;;23.40;99.90;;;;;;5023456;28;20623;-79
2021/08/26 11:55:07;;;;;;;2.63;1.10;;;23.60;99.90;;;;;;5055893;28;20566;-78
2021/08/26 11:57:33;;;;;;;1.93;0.93;;;23.70;99.90;;;;;;5073915;28;20621;-78
2021/08/26 12:00:15;;;;;;;3.83;0.90;;;23.70;99.90;;;;;;5039784;28;20956;-78
2021/08/26 12:02:48;;;;;;;3.17;1.10;;;23.60;99.90;;;;;;5041222;28;20169;-78
2021/08/26 12:05:15;;;;;;;2.50;0.80;;;23.60;99.90;;;;;;5056053;28;20627;-78
2021/08/26 12:07:45;;;;;;;2.93;1.03;;;23.50;99.90;;;;;;5018526;28;20727;-78
2021/08/26 12:10:17;;;;;;;3.37;1.00;;;23.50;99.90;;;;;;5033170;28;20578;-78
2021/08/26 12:12:54;;;;;;;2.40;0.87;;;23.30;99.90;;;;;;5068561;28;20578;-78
2021/08/26 12:15:29;;;;;;;3.07;1.20;;;23.20;99.90;;;;;;5026360;28;20650;-78
2021/08/26 12:18:03;;;;;;;2.03;1.20;;;23.10;99.90;;;;;;5073216;28;20609;-78
2021/08/26 12:20:32;;;;;;;3.30;1.07;;;23.10;99.90;;;;;;5039013;28;20562;-78
2021/08/26 12:22:59;;;;;;;3.63;0.87;;;23.00;99.90;;;;;;5073717;28;20562;-78
2021/08/26 12:25:31;;;;;;;1.67;0.93;;;23.00;99.90;;;;;;5073476;28;20655;-78
2021/08/26 12:27:59;;;;;;;3.00;1.57;;;23.00;99.90;;;;;;5035695;28;20623;-77
2021/08/26 12:30:40;;;;;;;2.33;1.00;;;23.00;99.90;;;;;;5035695;28;20571;-77
2021/08/26 12:33:19;;;;;;;3.80;1.17;;;23.00;99.90;;;;;;5035798;28;20979;-77
2021/08/26 12:35:46;;;;;;;2.43;1.10;;;23.10;99.90;;;;;;5053005;28;20656;-78
2021/08/26 12:38:14;;;;;;;3.23;1.20;;;23.30;99.90;;;;;;5036094;28;20634;-78
2021/08/26 12:40:57;;;;;;;3.20;1.50;;;23.50;99.90;;;;;;5039802;28;20567;-77
2021/08/26 12:43:25;;;;;;;4.27;1.17;;;23.70;99.90;;;;;;5035678;28;20636;-78
2021/08/26 12:46:05;;;;;;;2.03;0.90;;;24.00;99.90;;;;;;5052634;28;20582;-78
2021/08/26 12:48:38;;;;;;;5.10;1.10;;;24.20;99.90;;;;;;5002676;28;20607;-78
2021/08/26 12:51:18;;;;;;;2.97;1.30;;;24.40;99.90;;;;;;5035076;28;20583;-78
2021/08/26 12:54:03;;;;;;;4.73;1.50;;;24.50;99.90;;;;;;5034888;28;20654;-78
2021/08/26 12:56:43;;;;;;;5.47;1.10;;;24.70;99.90;;;;;;5017983;28;20575;-78
2021/08/26 12:59:12;;;;;;;2.00;0.80;;;24.70;99.90;;;;;;5018896;28;20639;-78
2021/08/26 13:01:43;;;;;;;6.33;2.27;;;24.80;99.90;;;;;;5001899;28;21173;-78
2021/08/26 13:04:22;;;;;;;2.30;1.10;;;24.80;99.90;;;;;;5035052;28;20611;-78
2021/08/26 13:06:53;;;;;;;4.90;0.90;;;24.80;99.90;;;;;;5034428;28;20599;-78